Time;durP1;ratioP1;P1;durP2;ratioP2;P2;SDS_P1;SDS_P2;PMS_P1;PMS_P2;Temp;Humidity;BMP_temperature;BMP_pressure;BME280_temperature;BME280_humidity;BME280_pressure;Samples;Min_cycle;Max_cycle;Signal;HPM_P1;HPM_P2
2022/09/14 00:03:46;;;;;;;4.85;4.30;;;;;;;;;;10037904;28;20050;-64
2022/09/14 00:08:40;;;;;;;13.85;5.43;;;;;;;;;;10029196;28;20053;-67
2022/09/14 00:13:34;;;;;;;5.30;4.53;;;;;;;;;;10031098;28;20077;-65
2022/09/14 00:18:28;;;;;;;8.82;6.57;;;;;;;;;;10029140;28;20042;-65
2022/09/14 00:23:22;;;;;;;5.50;4.00;;;;;;;;;;10034299;28;20050;-64
2022/09/14 00:28:16;;;;;;;7.22;4.40;;;;;;;;;;10034277;28;20088;-64
2022/09/14 00:33:12;;;;;;;8.07;4.30;;;;;;;;;;10033088;28;20528;-64
2022/09/14 00:38:08;;;;;;;9.05;5.65;;;;;;;;;;10032063;28;20060;-63
2022/09/14 00:43:03;;;;;;;5.22;4.30;;;;;;;;;;10031664;28;20050;-64
2022/09/14 00:47:57;;;;;;;4.93;4.50;;;;;;;;;;10034037;28;20058;-63
2022/09/14 00:52:52;;;;;;;8.45;4.68;;;;;;;;;;10037334;28;20471;-64
2022/09/14 00:57:48;;;;;;;6.03;4.90;;;;;;;;;;10031321;28;20042;-63
2022/09/14 01:02:43;;;;;;;11.80;5.38;;;;;;;;;;10030407;28;20057;-63
2022/09/14 01:08:01;;;;;;;7.40;5.13;;;;;;;;;;10031654;28;20512;-63
2022/09/14 01:13:21;;;;;;;6.53;5.33;;;;;;;;;;10035077;28;20144;-64
2022/09/14 01:18:26;;;;;;;4.93;3.90;;;;;;;;;;10035495;28;20054;-65
2022/09/14 01:23:35;;;;;;;6.57;5.18;;;;;;;;;;10040323;28;20050;-63
2022/09/14 01:28:37;;;;;;;6.53;5.20;;;;;;;;;;10039242;28;20501;-64
2022/09/14 01:33:39;;;;;;;8.43;4.75;;;;;;;;;;10032409;28;20038;-64
2022/09/14 01:38:43;;;;;;;8.77;4.63;;;;;;;;;;10032822;28;20081;-63
2022/09/14 01:43:39;;;;;;;7.68;5.95;;;;;;;;;;10014960;28;20062;-64
2022/09/14 01:49:05;;;;;;;8.73;6.75;;;;;;;;;;10038820;28;20066;-66
2022/09/14 01:54:22;;;;;;;12.00;8.00;;;;;;;;;;10032258;28;20137;-65
2022/09/14 01:59:20;;;;;;;10.90;7.55;;;;;;;;;;10034465;28;20045;-64
2022/09/14 02:04:18;;;;;;;15.07;7.20;;;;;;;;;;10042934;28;20607;-64
2022/09/14 02:09:18;;;;;;;14.02;7.63;;;;;;;;;;10035836;28;20300;-63
2022/09/14 02:14:12;;;;;;;8.27;7.30;;;;;;;;;;10006878;28;20085;-64
2022/09/14 02:19:06;;;;;;;16.08;9.02;;;;;;;;;;10023339;28;20053;-64
2022/09/14 02:24:00;;;;;;;11.15;9.30;;;;;;;;;;10023470;28;20057;-63
2022/09/14 02:28:55;;;;;;;11.00;9.98;;;;;;;;;;10013171;28;20116;-63
2022/09/14 02:33:56;;;;;;;14.43;10.48;;;;;;;;;;10016513;28;20073;-62
2022/09/14 02:38:57;;;;;;;15.32;10.20;;;;;;;;;;10042637;28;20511;-63
2022/09/14 02:43:58;;;;;;;14.75;11.13;;;;;;;;;;10047847;28;20408;-63
2022/09/14 02:49:04;;;;;;;11.90;10.07;;;;;;;;;;10048785;28;20061;-64
2022/09/14 02:54:45;;;;;;;12.02;10.82;;;;;;;;;;10042939;28;20060;-64
2022/09/14 02:59:44;;;;;;;11.70;10.00;;;;;;;;;;9931136;28;20424;-64
2022/09/14 03:04:38;;;;;;;17.25;10.32;;;;;;;;;;10054001;28;20053;-64
2022/09/14 03:09:32;;;;;;;12.93;11.20;;;;;;;;;;10038038;28;20057;-64
2022/09/14 03:14:25;;;;;;;15.48;12.68;;;;;;;;;;10050071;28;20050;-64
2022/09/14 03:19:19;;;;;;;12.82;11.60;;;;;;;;;;10054996;28;20046;-64
2022/09/14 03:24:12;;;;;;;13.48;10.77;;;;;;;;;;10045696;28;20080;-64
2022/09/14 03:29:06;;;;;;;10.43;9.43;;;;;;;;;;10044343;28;20061;-64
2022/09/14 03:34:01;;;;;;;12.27;10.93;;;;;;;;;;10042594;28;20041;-64
2022/09/14 03:38:56;;;;;;;12.93;10.07;;;;;;;;;;10041693;28;20053;-64
2022/09/14 03:43:51;;;;;;;12.05;10.75;;;;;;;;;;10062352;28;20059;-64
2022/09/14 03:48:45;;;;;;;12.57;10.90;;;;;;;;;;10063867;28;20068;-63
2022/09/14 03:53:40;;;;;;;24.27;12.43;;;;;;;;;;10055985;28;20050;-64
2022/09/14 03:58:34;;;;;;;11.50;10.15;;;;;;;;;;10068152;28;20129;-64
2022/09/14 04:03:27;;;;;;;13.10;10.52;;;;;;;;;;10070706;28;20168;-63
2022/09/14 04:08:22;;;;;;;11.77;10.25;;;;;;;;;;10054694;28;20050;-63
2022/09/14 04:13:16;;;;;;;12.85;10.27;;;;;;;;;;10059636;28;20057;-64
2022/09/14 04:18:11;;;;;;;15.32;11.77;;;;;;;;;;10064159;28;20500;-63
2022/09/14 04:23:05;;;;;;;11.38;9.35;;;;;;;;;;10054608;28;20060;-63
2022/09/14 04:27:59;;;;;;;15.82;10.85;;;;;;;;;;10052175;28;20050;-63
2022/09/14 04:33:12;;;;;;;8.88;7.97;;;;;;;;;;10043663;28;20054;-64
2022/09/14 04:38:06;;;;;;;10.75;7.80;;;;;;;;;;10039695;28;20062;-64
2022/09/14 04:43:00;;;;;;;11.55;6.90;;;;;;;;;;10040949;28;20049;-63
2022/09/14 04:47:54;;;;;;;7.85;6.85;;;;;;;;;;10035151;28;20445;-63
2022/09/14 04:52:49;;;;;;;10.38;7.63;;;;;;;;;;10040883;28;20393;-64
2022/09/14 04:57:46;;;;;;;8.95;6.97;;;;;;;;;;10041776;28;20669;-63
2022/09/14 05:02:41;;;;;;;7.38;5.25;;;;;;;;;;10035798;28;20053;-63
2022/09/14 05:07:35;;;;;;;13.82;4.78;;;;;;;;;;10037788;28;20421;-64
2022/09/14 05:12:29;;;;;;;10.57;5.20;;;;;;;;;;10039392;28;20061;-63
2022/09/14 05:17:23;;;;;;;12.57;4.65;;;;;;;;;;10041255;28;20072;-63
2022/09/14 05:22:20;;;;;;;6.70;4.40;;;;;;;;;;10067768;28;20452;-64
2022/09/14 05:27:17;;;;;;;7.03;4.75;;;;;;;;;;10057749;28;20050;-63
2022/09/14 05:32:11;;;;;;;7.05;4.70;;;;;;;;;;10045053;28;20050;-63
2022/09/14 05:37:05;;;;;;;6.00;4.78;;;;;;;;;;10042543;28;20386;-63
2022/09/14 05:41:58;;;;;;;5.65;4.65;;;;;;;;;;10025939;28;20046;-66
2022/09/14 05:46:52;;;;;;;12.70;4.93;;;;;;;;;;10029292;28;20054;-62
2022/09/14 05:51:46;;;;;;;8.13;5.20;;;;;;;;;;10033779;28;20133;-64
2022/09/14 05:56:40;;;;;;;10.10;5.25;;;;;;;;;;10031977;28;20167;-63
2022/09/14 06:01:34;;;;;;;10.70;6.75;;;;;;;;;;10032469;28;20533;-60
2022/09/14 06:06:29;;;;;;;24.95;8.18;;;;;;;;;;10032045;28;20460;-63
2022/09/14 06:11:27;;;;;;;9.77;5.40;;;;;;;;;;10028314;28;20056;-62
2022/09/14 06:16:23;;;;;;;11.82;5.18;;;;;;;;;;10014878;28;20065;-62
2022/09/14 06:21:19;;;;;;;18.55;4.72;;;;;;;;;;10026022;28;20046;-62
2022/09/14 06:26:19;;;;;;;21.60;4.93;;;;;;;;;;10025665;28;20406;-63
2022/09/14 06:31:16;;;;;;;23.75;4.60;;;;;;;;;;10030863;28;20054;-62
2022/09/14 06:36:13;;;;;;;8.27;3.92;;;;;;;;;;10031745;28;20048;-65
2022/09/14 06:41:08;;;;;;;18.38;4.75;;;;;;;;;;10027724;28;20053;-63
2022/09/14 06:46:22;;;;;;;30.75;5.65;;;;;;;;;;10029916;28;20064;-63
2022/09/14 06:51:23;;;;;;;20.58;5.15;;;;;;;;;;10019517;28;20060;-63
2022/09/14 06:56:17;;;;;;;15.30;5.35;;;;;;;;;;10027665;28;20554;-63
2022/09/14 07:01:14;;;;;;;9.18;5.13;;;;;;;;;;10032054;28;20041;-63
2022/09/14 07:06:09;;;;;;;11.15;6.20;;;;;;;;;;10035881;28;20068;-64
2022/09/14 07:11:04;;;;;;;13.75;5.38;;;;;;;;;;10054519;28;20064;-64
2022/09/14 07:15:57;;;;;;;9.85;4.53;;;;;;;;;;10042465;28;20655;-63
2022/09/14 07:20:51;;;;;;;9.88;4.80;;;;;;;;;;10040734;28;20061;-64
2022/09/14 07:25:45;;;;;;;10.05;4.15;;;;;;;;;;10066285;28;20050;-64
2022/09/14 07:30:45;;;;;;;5.63;3.70;;;;;;;;;;10060240;28;20080;-63
2022/09/14 07:35:39;;;;;;;9.93;4.20;;;;;;;;;;10037607;28;20050;-64
2022/09/14 07:40:34;;;;;;;5.35;2.60;;;;;;;;;;10045621;28;20045;-64
2022/09/14 07:45:28;;;;;;;15.70;3.17;;;;;;;;;;10066107;28;20385;-64
2022/09/14 07:50:22;;;;;;;11.65;3.00;;;;;;;;;;10037216;28;20057;-64
2022/09/14 07:55:17;;;;;;;6.22;3.50;;;;;;;;;;10045246;28;20050;-64
2022/09/14 08:00:14;;;;;;;6.10;2.33;;;;;;;;;;10047616;28;20509;-63
2022/09/14 08:05:10;;;;;;;8.23;2.57;;;;;;;;;;10050943;28;20053;-64
2022/09/14 08:10:04;;;;;;;6.20;2.83;;;;;;;;;;10043462;28;20064;-64
2022/09/14 08:14:57;;;;;;;6.40;2.83;;;;;;;;;;10034736;28;20115;-63
2022/09/14 08:19:51;;;;;;;7.18;3.05;;;;;;;;;;10050315;28;20048;-64
2022/09/14 08:24:45;;;;;;;7.40;2.67;;;;;;;;;;10051265;28;20500;-64
2022/09/14 08:29:38;;;;;;;5.22;2.15;;;;;;;;;;10038286;28;20057;-64
2022/09/14 08:34:32;;;;;;;7.75;2.85;;;;;;;;;;10041811;28;20078;-64
2022/09/14 08:39:26;;;;;;;5.93;2.90;;;;;;;;;;10040145;28;20054;-64
2022/09/14 08:44:29;;;;;;;12.57;2.47;;;;;;;;;;10038985;28;20057;-64
2022/09/14 08:49:45;;;;;;;11.70;2.65;;;;;;;;;;10044773;28;20061;-64
2022/09/14 08:54:39;;;;;;;4.35;2.50;;;;;;;;;;10051526;28;20064;-64
2022/09/14 08:59:50;;;;;;;5.13;2.05;;;;;;;;;;10056819;28;20045;-64
2022/09/14 09:04:55;;;;;;;5.25;2.53;;;;;;;;;;10044046;28;20085;-64
2022/09/14 09:09:49;;;;;;;6.78;2.05;;;;;;;;;;10059328;28;20096;-64
2022/09/14 09:15:04;;;;;;;3.67;2.20;;;;;;;;;;10046959;28;20050;-64
2022/09/14 09:20:11;;;;;;;11.38;2.90;;;;;;;;;;10025805;28;20524;-64
2022/09/14 09:25:09;;;;;;;3.40;1.67;;;;;;;;;;10050961;28;20500;-65
2022/09/14 09:30:02;;;;;;;;;;;;;;;;;;10067665;28;20064;-65
2022/09/14 09:34:55;;;;;;;4.57;2.22;;;;;;;;;;10033962;28;19967;-65
2022/09/14 09:40:01;;;;;;;8.63;2.03;;;;;;;;;;10024209;28;20136;-65
2022/09/14 09:45:00;;;;;;;5.97;1.63;;;;;;;;;;10041215;28;20072;-64
2022/09/14 09:50:04;;;;;;;5.10;1.48;;;;;;;;;;10041070;28;20073;-64
2022/09/14 09:54:58;;;;;;;6.03;1.70;;;;;;;;;;10068651;28;20054;-64
2022/09/14 10:00:13;;;;;;;7.15;3.13;;;;;;;;;;10037711;28;20408;-64
2022/09/14 10:05:09;;;;;;;6.43;1.63;;;;;;;;;;10040077;28;20053;-64
2022/09/14 10:10:07;;;;;;;3.45;1.75;;;;;;;;;;10066746;28;20132;-64
2022/09/14 10:15:27;;;;;;;16.35;2.95;;;;;;;;;;10034710;28;20061;-64
2022/09/14 10:20:23;;;;;;;11.82;1.90;;;;;;;;;;10030381;28;20045;-64
2022/09/14 10:25:16;;;;;;;13.18;2.20;;;;;;;;;;10065397;28;20053;-64
2022/09/14 10:30:25;;;;;;;5.72;1.98;;;;;;;;;;10060472;28;20049;-64
2022/09/14 10:35:19;;;;;;;6.55;2.55;;;;;;;;;;10042300;28;20061;-63
2022/09/14 10:40:37;;;;;;;12.73;2.42;;;;;;;;;;10038639;28;20038;-63
2022/09/14 10:45:45;;;;;;;9.82;2.95;;;;;;;;;;10035480;28;20056;-63
2022/09/14 10:51:06;;;;;;;12.30;2.45;;;;;;;;;;10050523;28;20049;-63
2022/09/14 10:56:23;;;;;;;6.63;2.55;;;;;;;;;;10040236;28;20053;-63
2022/09/14 11:01:49;;;;;;;11.80;2.50;;;;;;;;;;10018315;28;20081;-63
2022/09/14 11:07:15;;;;;;;14.57;3.00;;;;;;;;;;10039567;28;20042;-63
2022/09/14 11:12:34;;;;;;;12.93;2.97;;;;;;;;;;10049548;28;20050;-63
2022/09/14 11:17:51;;;;;;;18.35;2.78;;;;;;;;;;10058756;28;20045;-63
2022/09/14 11:23:02;;;;;;;5.38;2.00;;;;;;;;;;10050821;28;20116;-63
2022/09/14 11:28:30;;;;;;;7.53;2.42;;;;;;;;;;10054750;28;20060;-64
2022/09/14 11:33:29;;;;;;;11.32;2.60;;;;;;;;;;10032839;28;20046;-64
2022/09/14 11:38:27;;;;;;;8.15;2.08;;;;;;;;;;10017336;28;20093;-64
2022/09/14 11:43:24;;;;;;;8.45;2.63;;;;;;;;;;10066339;28;20060;-63
2022/09/14 11:48:27;;;;;;;11.02;2.45;;;;;;;;;;10036197;28;20054;-63
2022/09/14 11:53:51;;;;;;;8.23;2.47;;;;;;;;;;10054117;28;20053;-63
2022/09/14 11:58:46;;;;;;;11.50;2.67;;;;;;;;;;10058995;28;20077;-64
2022/09/14 12:04:05;;;;;;;11.35;3.25;;;;;;;;;;10055288;28;20111;-64
2022/09/14 12:09:18;;;;;;;15.43;2.75;;;;;;;;;;10072673;28;20049;-64
2022/09/14 12:14:39;;;;;;;8.10;2.22;;;;;;;;;;10073005;28;20049;-64
2022/09/14 12:19:33;;;;;;;7.75;2.20;;;;;;;;;;10046443;28;20046;-63
2022/09/14 12:24:27;;;;;;;9.10;1.98;;;;;;;;;;10059359;28;20517;-64
2022/09/14 12:29:28;;;;;;;8.80;2.10;;;;;;;;;;10063846;28;20091;-64
2022/09/14 12:34:25;;;;;;;16.08;2.35;;;;;;;;;;10038369;28;20068;-64
2022/09/14 12:39:26;;;;;;;8.50;2.25;;;;;;;;;;10034582;28;20432;-64
2022/09/14 12:44:50;;;;;;;5.60;1.73;;;;;;;;;;10045976;28;20218;-64
2022/09/14 12:50:06;;;;;;;7.70;1.52;;;;;;;;;;10024810;28;20041;-64
2022/09/14 12:55:27;;;;;;;3.10;1.10;;;;;;;;;;10063924;28;20056;-64
2022/09/14 13:00:40;;;;;;;8.32;1.20;;;;;;;;;;10030345;28;20107;-61
2022/09/14 13:05:54;;;;;;;5.00;1.10;;;;;;;;;;10057540;28;20133;-64
2022/09/14 13:10:51;;;;;;;7.25;1.33;;;;;;;;;;10038834;28;20053;-63
2022/09/14 13:15:54;;;;;;;10.32;1.50;;;;;;;;;;10059724;28;20091;-63
2022/09/14 13:20:55;;;;;;;10.30;1.73;;;;;;;;;;10043643;28;20073;-64
2022/09/14 13:25:49;;;;;;;12.52;2.20;;;;;;;;;;10041207;28;20515;-64
2022/09/14 13:30:43;;;;;;;9.52;1.38;;;;;;;;;;10030144;28;20058;-64
2022/09/14 13:35:48;;;;;;;22.42;2.58;;;;;;;;;;10040686;28;20104;-63
2022/09/14 13:40:41;;;;;;;7.82;1.38;;;;;;;;;;10048444;28;20076;-63
2022/09/14 13:45:35;;;;;;;14.02;1.50;;;;;;;;;;10052370;28;20049;-63
2022/09/14 13:50:29;;;;;;;6.95;1.30;;;;;;;;;;10040171;28;20053;-63
2022/09/14 13:55:23;;;;;;;12.90;2.28;;;;;;;;;;10046297;28;20050;-63
2022/09/14 14:00:20;;;;;;;13.07;1.65;;;;;;;;;;10032400;28;20543;-63
2022/09/14 14:05:21;;;;;;;6.22;2.92;;;;;;;;;;10042762;28;20049;-63
2022/09/14 14:10:38;;;;;;;14.98;2.15;;;;;;;;;;10033728;28;20060;-64
2022/09/14 14:15:41;;;;;;;8.07;1.55;;;;;;;;;;10049848;28;20045;-63
2022/09/14 14:20:36;;;;;;;10.73;2.58;;;;;;;;;;10043404;28;20045;-63
2022/09/14 14:25:40;;;;;;;8.88;1.58;;;;;;;;;;10058797;28;20053;-63
2022/09/14 14:30:40;;;;;;;12.43;2.55;;;;;;;;;;10045548;28;20119;-63
2022/09/14 14:35:34;;;;;;;8.02;1.75;;;;;;;;;;10031199;28;20049;-63
2022/09/14 14:40:28;;;;;;;9.88;2.00;;;;;;;;;;10042314;28;20076;-63
2022/09/14 14:45:26;;;;;;;11.40;2.05;;;;;;;;;;10041455;28;20049;-63
2022/09/14 14:50:25;;;;;;;6.30;1.30;;;;;;;;;;10045718;28;20644;-63
2022/09/14 14:55:22;;;;;;;4.72;1.73;;;;;;;;;;10043065;28;20445;-63
2022/09/14 15:00:23;;;;;;;9.45;2.22;;;;;;;;;;10032093;28;20128;-63
2022/09/14 15:05:17;;;;;;;9.80;1.67;;;;;;;;;;10038348;28;20448;-63
2022/09/14 15:10:14;;;;;;;8.50;1.42;;;;;;;;;;10040862;28;20061;-63
2022/09/14 15:15:17;;;;;;;7.10;1.60;;;;;;;;;;10050764;28;20053;-63
2022/09/14 15:20:11;;;;;;;9.63;1.65;;;;;;;;;;10059362;28;20053;-64
2022/09/14 15:25:06;;;;;;;11.13;1.27;;;;;;;;;;10042013;28;20136;-64
2022/09/14 15:30:01;;;;;;;16.35;1.65;;;;;;;;;;10049818;28;20428;-70
2022/09/14 15:34:55;;;;;;;11.07;2.15;;;;;;;;;;10049914;28;20084;-64
2022/09/14 15:39:49;;;;;;;12.70;2.67;;;;;;;;;;10058675;28;20052;-64
2022/09/14 15:44:43;;;;;;;12.18;2.00;;;;;;;;;;10061780;28;20053;-64
2022/09/14 15:49:37;;;;;;;7.10;0.93;;;;;;;;;;10042957;28;20099;-64
2022/09/14 15:54:32;;;;;;;11.30;1.77;;;;;;;;;;10052571;28;20439;-64
2022/09/14 15:59:27;;;;;;;19.13;1.67;;;;;;;;;;10043801;28;20595;-64
2022/09/14 16:04:20;;;;;;;16.02;2.72;;;;;;;;;;10044013;28;20080;-64
2022/09/14 16:09:15;;;;;;;9.25;1.42;;;;;;;;;;10060014;28;20053;-64
2022/09/14 16:14:10;;;;;;;7.00;1.30;;;;;;;;;;10025099;28;20081;-64
2022/09/14 16:19:08;;;;;;;7.45;1.25;;;;;;;;;;10068465;28;20054;-64
2022/09/14 16:24:07;;;;;;;7.38;1.35;;;;;;;;;;10032166;28;20054;-65
2022/09/14 16:29:01;;;;;;;8.07;1.60;;;;;;;;;;10047300;28;20081;-64
2022/09/14 16:33:58;;;;;;;4.57;1.45;;;;;;;;;;10043755;28;20057;-65
2022/09/14 16:39:33;;;;;;;6.33;1.40;;;;;;;;;;10038957;28;20419;-64
2022/09/14 16:44:29;;;;;;;4.38;1.10;;;;;;;;;;10035569;28;20564;-64
2022/09/14 16:49:22;;;;;;;4.97;1.50;;;;;;;;;;10055433;28;20096;-64
2022/09/14 16:54:22;;;;;;;4.60;1.40;;;;;;;;;;10043029;28;20076;-64
2022/09/14 16:59:16;;;;;;;9.48;1.17;;;;;;;;;;10040354;28;20050;-64
2022/09/14 17:04:13;;;;;;;9.77;2.03;;;;;;;;;;10037528;28;20054;-64
2022/09/14 17:09:13;;;;;;;7.63;2.78;;;;;;;;;;10046062;28;20120;-64
2022/09/14 17:14:06;;;;;;;7.55;1.83;;;;;;;;;;10046588;28;20140;-63
2022/09/14 17:19:02;;;;;;;16.77;1.88;;;;;;;;;;10032157;28;20461;-63
2022/09/14 17:23:55;;;;;;;5.00;1.35;;;;;;;;;;10038779;28;20042;-63
2022/09/14 17:28:51;;;;;;;5.47;1.20;;;;;;;;;;10050324;28;20730;-63
2022/09/14 17:33:46;;;;;;;8.02;2.03;;;;;;;;;;10057183;28;20136;-63
2022/09/14 17:38:41;;;;;;;10.00;2.72;;;;;;;;;;10044062;28;20060;-63
2022/09/14 17:43:35;;;;;;;8.35;1.77;;;;;;;;;;10051336;28;20073;-63
2022/09/14 17:48:32;;;;;;;9.55;2.03;;;;;;;;;;10051601;28;20041;-63
2022/09/14 17:53:27;;;;;;;19.52;3.28;;;;;;;;;;10069756;28;20053;-63
2022/09/14 17:58:21;;;;;;;12.30;2.00;;;;;;;;;;10056185;28;20054;-63
2022/09/14 18:03:15;;;;;;;7.30;1.83;;;;;;;;;;10052888;28;20056;-63
2022/09/14 18:08:09;;;;;;;11.70;2.60;;;;;;;;;;10065378;28;20112;-60
2022/09/14 18:13:03;;;;;;;12.38;2.05;;;;;;;;;;10034375;28;20136;-64
2022/09/14 18:17:58;;;;;;;17.42;3.92;;;;;;;;;;10055510;28;20049;-65
2022/09/14 18:22:54;;;;;;;5.95;1.83;;;;;;;;;;10049159;28;20572;-62
2022/09/14 18:27:47;;;;;;;10.88;2.00;;;;;;;;;;10067572;28;20408;-63
2022/09/14 18:32:41;;;;;;;11.60;2.72;;;;;;;;;;10059393;28;20512;-63
2022/09/14 18:37:37;;;;;;;8.35;1.60;;;;;;;;;;10044848;28;20497;-63
2022/09/14 18:42:31;;;;;;;6.97;2.17;;;;;;;;;;10037260;28;20078;-64
2022/09/14 18:47:25;;;;;;;14.68;2.10;;;;;;;;;;10046098;28;20045;-70
2022/09/14 18:52:19;;;;;;;8.13;3.05;;;;;;;;;;10045350;28;20084;-69
2022/09/14 18:57:16;;;;;;;11.80;2.22;;;;;;;;;;10040009;28;20136;-70
2022/09/14 19:02:10;;;;;;;13.17;3.43;;;;;;;;;;10033506;28;20132;-69
2022/09/14 19:07:06;;;;;;;9.85;1.88;;;;;;;;;;10047737;28;20107;-71
2022/09/14 19:11:59;;;;;;;15.93;1.70;;;;;;;;;;10050840;28;20519;-70
2022/09/14 19:16:59;;;;;;;7.35;1.77;;;;;;;;;;10038375;28;20456;-70
2022/09/14 19:22:10;;;;;;;10.52;2.15;;;;;;;;;;10025327;28;20046;-70
2022/09/14 19:27:04;;;;;;;15.88;2.45;;;;;;;;;;10040056;28;20412;-70
2022/09/14 19:31:58;;;;;;;18.83;2.35;;;;;;;;;;10052259;28;20046;-68
2022/09/14 19:36:53;;;;;;;15.93;2.58;;;;;;;;;;10040997;28;20058;-67
2022/09/14 19:41:46;;;;;;;17.33;2.47;;;;;;;;;;10042496;28;20092;-68
2022/09/14 19:46:40;;;;;;;21.88;3.55;;;;;;;;;;10028908;28;20052;-68
2022/09/14 19:51:34;;;;;;;9.93;2.22;;;;;;;;;;10027706;28;20482;-62
2022/09/14 19:56:31;;;;;;;9.98;2.38;;;;;;;;;;10031309;28;20100;-64
2022/09/14 20:01:30;;;;;;;11.50;2.40;;;;;;;;;;10024271;28;20042;-63
2022/09/14 20:06:30;;;;;;;10.90;2.25;;;;;;;;;;10027149;28;20053;-62
2022/09/14 20:11:26;;;;;;;8.55;1.67;;;;;;;;;;10029447;28;20054;-63
2022/09/14 20:16:25;;;;;;;14.80;3.30;;;;;;;;;;10028779;28;20073;-63
2022/09/14 20:21:22;;;;;;;14.60;2.65;;;;;;;;;;10031611;28;20085;-61
2022/09/14 20:26:16;;;;;;;14.18;2.58;;;;;;;;;;10033745;28;20448;-61
2022/09/14 20:31:12;;;;;;;12.95;2.95;;;;;;;;;;10033405;28;20062;-62
2022/09/14 20:36:08;;;;;;;8.77;2.25;;;;;;;;;;10033968;28;20049;-62
2022/09/14 20:41:07;;;;;;;12.75;2.53;;;;;;;;;;10035650;28;20099;-62
2022/09/14 20:46:00;;;;;;;8.77;2.72;;;;;;;;;;10033530;28;20049;-62
2022/09/14 20:50:54;;;;;;;10.50;2.20;;;;;;;;;;10033464;28;20053;-62
2022/09/14 20:55:48;;;;;;;18.55;3.03;;;;;;;;;;10032081;28;20100;-65
2022/09/14 21:00:43;;;;;;;20.85;4.38;;;;;;;;;;10032473;28;20049;-62
2022/09/14 21:05:37;;;;;;;12.00;2.13;;;;;;;;;;10037124;28;20551;-62
2022/09/14 21:10:37;;;;;;;11.07;2.97;;;;;;;;;;10030372;28;20046;-64
2022/09/14 21:15:32;;;;;;;12.88;2.50;;;;;;;;;;10035131;28;20583;-62
2022/09/14 21:20:26;;;;;;;11.98;2.17;;;;;;;;;;10033172;28;20436;-63
2022/09/14 21:25:20;;;;;;;13.35;2.70;;;;;;;;;;10034385;28;20050;-63
2022/09/14 21:30:14;;;;;;;12.75;2.65;;;;;;;;;;10030522;28;20061;-63
2022/09/14 21:35:09;;;;;;;7.68;1.90;;;;;;;;;;10032501;28;20073;-64
2022/09/14 21:40:02;;;;;;;9.27;1.70;;;;;;;;;;10036477;28;20717;-62
2022/09/14 21:44:56;;;;;;;7.80;1.88;;;;;;;;;;10036584;28;20520;-62
2022/09/14 21:49:51;;;;;;;11.27;2.13;;;;;;;;;;10036095;28;20416;-62
2022/09/14 21:54:46;;;;;;;11.00;2.40;;;;;;;;;;10036600;28;20050;-62
2022/09/14 21:59:40;;;;;;;14.63;3.78;;;;;;;;;;10033837;28;20081;-61
2022/09/14 22:04:35;;;;;;;10.00;2.42;;;;;;;;;;10030858;28;20061;-61
2022/09/14 22:09:29;;;;;;;8.38;2.10;;;;;;;;;;10039008;28;20049;-61
2022/09/14 22:14:26;;;;;;;6.13;2.20;;;;;;;;;;10028616;28;20125;-60
2022/09/14 22:19:27;;;;;;;16.38;2.60;;;;;;;;;;10030048;28;20549;-62
2022/09/14 22:24:27;;;;;;;10.65;2.50;;;;;;;;;;10029409;28;20046;-61
2022/09/14 22:29:26;;;;;;;10.73;2.50;;;;;;;;;;10033602;28;20053;-61
2022/09/14 22:34:20;;;;;;;8.48;2.20;;;;;;;;;;10034125;28;20057;-61
2022/09/14 22:39:14;;;;;;;12.68;3.65;;;;;;;;;;10034945;28;20053;-61
2022/09/14 22:44:09;;;;;;;8.38;1.95;;;;;;;;;;10033578;28;20378;-61
2022/09/14 22:49:02;;;;;;;12.25;2.25;;;;;;;;;;10036035;28;20050;-62
2022/09/14 22:53:56;;;;;;;10.10;1.67;;;;;;;;;;10011269;28;20075;-61
2022/09/14 22:58:50;;;;;;;10.50;1.90;;;;;;;;;;10034229;28;20055;-61
2022/09/14 23:03:44;;;;;;;8.48;2.63;;;;;;;;;;10034804;28;20058;-61
2022/09/14 23:08:39;;;;;;;9.25;1.85;;;;;;;;;;10033017;28;20048;-61
2022/09/14 23:13:35;;;;;;;8.43;2.05;;;;;;;;;;10029275;28;20600;-62
2022/09/14 23:18:29;;;;;;;14.02;3.28;;;;;;;;;;10029523;28;20136;-62
2022/09/14 23:23:25;;;;;;;13.30;3.72;;;;;;;;;;10029163;28;20046;-62
2022/09/14 23:28:22;;;;;;;11.20;3.33;;;;;;;;;;10030759;28;20409;-61
2022/09/14 23:33:15;;;;;;;8.30;2.10;;;;;;;;;;10034351;28;20050;-61
2022/09/14 23:38:09;;;;;;;10.43;2.45;;;;;;;;;;10030740;28;20060;-61
2022/09/14 23:43:03;;;;;;;14.80;2.63;;;;;;;;;;10035189;28;20135;-60
2022/09/14 23:47:56;;;;;;;15.50;2.00;;;;;;;;;;10031105;28;20468;-61
2022/09/14 23:52:56;;;;;;;14.43;3.47;;;;;;;;;;10039752;28;21462;-61
2022/09/14 23:57:50;;;;;;;10.05;2.25;;;;;;;;;;10043083;28;20045;-61
